createdAt,value
2019-02-21T01:04:58.730Z,7.89
2019-02-21T01:07:44.115Z,7.91
2019-02-21T01:10:29.510Z,8.01
2019-02-21T01:13:15.255Z,7.86
2019-02-21T01:16:00.536Z,7.83
2019-02-21T01:18:46.855Z,7.77
2019-02-21T01:21:33.076Z,7.74
2019-02-21T01:24:18.394Z,7.68
2019-02-21T01:27:03.726Z,7.67
2019-02-21T01:29:49.381Z,7.55
2019-02-21T01:32:34.760Z,7.54
2019-02-21T01:35:20.186Z,7.42
2019-02-21T01:38:06.051Z,7.43
2019-02-21T01:40:51.696Z,7.39
2019-02-21T01:43:37.003Z,7.47
2019-02-21T01:46:22.727Z,7.32
2019-02-21T01:49:08.210Z,7.36
2019-02-21T01:51:53.483Z,7.34
2019-02-21T01:54:39.287Z,7.24
2019-02-21T01:57:24.815Z,7.45
2019-02-21T02:00:10.918Z,7.45
2019-02-21T02:02:57.020Z,7.51
2019-02-21T02:05:42.697Z,7.29
2019-02-21T02:08:28.006Z,7.39
2019-02-21T02:11:15.621Z,7.64
2019-02-21T02:14:01.154Z,7.58
2019-02-21T02:16:46.643Z,7.46
2019-02-21T02:19:32.254Z,7.49
2019-02-21T02:22:17.683Z,7.51
2019-02-21T02:25:03.179Z,7.38
2019-02-21T02:27:48.923Z,7.33
2019-02-21T02:30:34.613Z,7.44
2019-02-21T02:33:20.027Z,7.39
2019-02-21T02:36:05.591Z,7.33
2019-02-21T02:38:51.004Z,7.28
2019-02-21T02:41:36.340Z,7.12
2019-02-21T02:44:22.318Z,6.96
2019-02-21T02:47:07.962Z,7.01
2019-02-21T02:49:53.716Z,6.88
2019-02-21T02:52:39.709Z,6.94
2019-02-21T02:55:25.159Z,7.05
2019-02-21T02:58:10.555Z,6.99
2019-02-21T03:00:56.494Z,6.88
2019-02-21T03:03:42.078Z,6.89
2019-02-21T03:06:27.971Z,6.94
2019-02-21T03:09:13.613Z,6.95
2019-02-21T03:11:59.120Z,6.96
2019-02-21T03:14:44.417Z,6.89
2019-02-21T03:17:30.197Z,7.03
2019-02-21T03:20:15.877Z,7.01
2019-02-21T03:23:01.171Z,7.15
2019-02-21T03:25:46.951Z,7.17
2019-02-21T03:28:32.359Z,7.20
2019-02-21T03:31:17.757Z,7.38
2019-02-21T03:34:03.585Z,7.22
2019-02-21T03:36:49.088Z,7.30
2019-02-21T03:39:35.205Z,7.11
2019-02-21T03:42:20.815Z,7.30
2019-02-21T03:45:07.399Z,7.25
2019-02-21T03:47:53.243Z,7.33
2019-02-21T03:50:38.929Z,7.31
2019-02-21T03:53:24.561Z,7.27
2019-02-21T03:56:10.109Z,7.08
2019-02-21T03:58:56.039Z,7.06
2019-02-21T04:01:41.543Z,7.12
2019-02-21T04:04:27.337Z,6.95
2019-02-21T04:07:12.951Z,6.93
2019-02-21T04:09:59.141Z,6.93
2019-02-21T04:12:45.337Z,6.91
2019-02-21T04:15:31.388Z,6.73
2019-02-21T04:18:16.713Z,6.83
2019-02-21T04:21:02.156Z,6.95
2019-02-21T04:23:47.925Z,6.84
2019-02-21T04:26:33.564Z,6.80
2019-02-21T04:29:19.158Z,6.63
2019-02-21T04:32:16.021Z,6.71
2019-02-21T04:34:52.705Z,6.69
2019-02-21T04:37:38.170Z,6.65
2019-02-21T04:40:23.960Z,6.71
2019-02-21T04:43:09.374Z,6.54
2019-02-21T04:45:54.842Z,6.59
2019-02-21T04:48:40.459Z,6.65
2019-02-21T04:51:26.004Z,6.52
2019-02-21T04:54:11.402Z,6.47
2019-02-21T04:56:57.106Z,6.18
2019-02-21T04:59:42.542Z,6.18
2019-02-21T05:02:29.510Z,6.19
2019-02-21T05:05:15.608Z,6.19
2019-02-21T05:08:04.117Z,6.21
2019-02-21T05:10:49.459Z,6.22
2019-02-21T05:13:35.503Z,6.22
2019-02-21T05:16:33.712Z,6.18
2019-02-21T05:19:22.543Z,6.19
2019-02-21T05:22:08.542Z,6.14
2019-02-21T05:24:53.918Z,6.14
2019-02-21T05:27:45.392Z,6.19
2019-02-21T05:30:30.967Z,6.22
2019-02-21T05:33:34.879Z,6.23
2019-02-21T05:36:40.000Z,6.22
2019-02-21T05:39:37.980Z,6.34
2019-02-21T05:42:41.799Z,6.34
2019-02-21T05:45:42.202Z,6.34
2019-02-21T05:48:53.790Z,6.24
2019-02-21T05:51:47.639Z,6.22
2019-02-21T05:54:38.232Z,6.28
2019-02-21T05:57:32.840Z,6.09
2019-02-21T06:00:41.040Z,6.20
2019-02-21T06:03:46.210Z,6.24
2019-02-21T06:06:51.469Z,6.12
2019-02-21T06:10:06.602Z,6.17
2019-02-21T06:13:11.726Z,6.12
2019-02-21T06:16:15.863Z,6.04
2019-02-21T06:19:20.928Z,6.05
2019-02-21T06:22:16.474Z,5.89
2019-02-21T06:25:13.989Z,5.99
2019-02-21T06:28:04.228Z,5.94
2019-02-21T06:31:02.086Z,6.02
2019-02-21T06:33:49.507Z,5.92
2019-02-21T06:36:35.269Z,5.96
2019-02-21T06:39:21.475Z,5.92
2019-02-21T06:42:07.020Z,5.99
2019-02-21T06:44:53.132Z,6.05
2019-02-21T06:47:39.120Z,6.27
2019-02-21T06:50:27.048Z,6.26
2019-02-21T06:53:12.135Z,6.29
2019-02-21T06:55:58.475Z,6.28
2019-02-21T06:58:44.189Z,6.35
2019-02-21T07:01:29.823Z,6.27
2019-02-21T07:04:15.784Z,6.36
2019-02-21T07:07:01.363Z,6.42
2019-02-21T07:09:46.792Z,6.52
2019-02-21T07:12:32.621Z,6.47
2019-02-21T07:15:18.471Z,6.51
2019-02-21T07:18:03.816Z,6.64
2019-02-21T07:20:49.495Z,6.91
2019-02-21T07:23:43.055Z,6.96
2019-02-21T07:26:22.459Z,6.95
2019-02-21T07:29:08.110Z,7.17
2019-02-21T07:31:53.684Z,7.30
2019-02-21T07:34:39.159Z,7.23
2019-02-21T07:37:24.989Z,7.32
2019-02-21T07:40:19.867Z,7.53
2019-02-21T07:42:58.760Z,7.48
2019-02-21T07:45:45.000Z,8.19
2019-02-21T07:48:31.337Z,7.89
2019-02-21T07:51:16.689Z,7.73
2019-02-21T07:54:02.588Z,7.73
2019-02-21T07:56:48.039Z,7.71
2019-02-21T07:59:33.480Z,8.07
2019-02-21T08:02:21.015Z,9.10
2019-02-21T08:05:07.067Z,9.43
2019-02-21T08:07:52.373Z,8.69
2019-02-21T08:10:38.577Z,9.49
2019-02-21T08:13:24.337Z,9.90
2019-02-21T08:16:12.297Z,9.67
2019-02-21T08:18:57.488Z,10.80
2019-02-21T08:21:43.592Z,10.25
2019-02-21T08:24:29.356Z,10.77
2019-02-21T08:27:15.077Z,10.61
2019-02-21T08:30:00.712Z,10.92
2019-02-21T08:33:12.267Z,11.21
2019-02-21T08:35:58.081Z,11.44
2019-02-21T08:38:43.702Z,10.31
2019-02-21T08:41:29.241Z,9.63
2019-02-21T08:44:14.934Z,10.51
2019-02-21T08:47:00.255Z,9.96
2019-02-21T08:49:45.911Z,10.00
2019-02-21T08:52:33.097Z,10.03
2019-02-21T08:55:18.401Z,9.80
2019-02-21T08:58:03.775Z,9.89
2019-02-21T09:00:49.089Z,9.44
2019-02-21T09:03:34.516Z,9.52
2019-02-21T09:06:19.965Z,9.51
2019-02-21T09:09:05.519Z,9.43
2019-02-21T09:11:53.855Z,9.80
2019-02-21T09:14:39.926Z,9.77
2019-02-21T09:17:25.325Z,9.61
2019-02-21T09:20:10.877Z,9.99
2019-02-21T09:22:56.837Z,10.45
2019-02-21T09:25:42.401Z,10.27
2019-02-21T09:28:28.209Z,10.28
2019-02-21T09:31:13.945Z,10.09
2019-02-21T09:33:59.460Z,9.97
2019-02-21T09:36:45.413Z,10.30
2019-02-21T09:39:31.289Z,10.20
2019-02-21T09:42:17.349Z,10.27
2019-02-21T09:45:03.521Z,10.39
2019-02-21T09:47:49.738Z,10.19
2019-02-21T09:50:35.224Z,10.39
2019-02-21T09:53:20.636Z,10.26
2019-02-21T09:56:06.764Z,9.97
2019-02-21T09:58:52.384Z,10.08
2019-02-21T10:01:38.534Z,9.70
2019-02-21T10:04:31.862Z,9.99
2019-02-21T10:07:12.013Z,10.03
2019-02-21T10:09:57.990Z,10.29
2019-02-21T10:12:46.187Z,10.10
2019-02-21T10:15:32.191Z,10.21
2019-02-21T10:18:17.657Z,10.14
2019-02-21T10:21:04.625Z,10.08
2019-02-21T10:23:50.757Z,10.48
2019-02-21T10:26:38.067Z,10.95
2019-02-21T10:29:23.670Z,11.14
2019-02-21T10:32:09.385Z,11.32
2019-02-21T10:34:55.156Z,11.74
2019-02-21T10:37:40.512Z,11.39
2019-02-21T10:40:26.340Z,11.45
2019-02-21T10:43:11.865Z,11.50
2019-02-21T10:46:00.075Z,11.92
2019-02-21T10:48:45.823Z,11.54
2019-02-21T10:51:31.601Z,11.63
2019-02-21T10:54:16.883Z,11.53
2019-02-21T10:57:02.852Z,11.51
2019-02-21T10:59:48.719Z,11.42
2019-02-21T11:02:34.339Z,11.70
2019-02-21T11:05:20.707Z,11.95
2019-02-21T11:08:06.046Z,11.77
2019-02-21T11:10:52.227Z,11.73
2019-02-21T11:13:39.183Z,11.86
2019-02-21T11:16:24.548Z,11.76
2019-02-21T11:19:10.081Z,12.01
2019-02-21T11:21:56.308Z,11.70
2019-02-21T11:24:42.220Z,12.19
2019-02-21T11:27:27.636Z,12.28
2019-02-21T11:30:15.137Z,12.59
2019-02-21T11:33:00.756Z,12.41
2019-02-21T11:35:46.807Z,12.24
2019-02-21T11:38:32.461Z,12.29
2019-02-21T11:41:18.308Z,12.37
2019-02-21T11:44:04.281Z,12.39
2019-02-21T11:46:50.178Z,13.24
2019-02-21T11:49:36.252Z,14.06
2019-02-21T11:52:22.127Z,13.59
2019-02-21T11:55:08.814Z,13.66
2019-02-21T11:57:54.383Z,14.70
2019-02-21T12:00:44.374Z,15.50
2019-02-21T12:03:30.154Z,14.97
2019-02-21T12:06:15.715Z,14.08
2019-02-21T12:09:01.595Z,13.56
2019-02-21T12:11:47.035Z,13.28
2019-02-21T12:14:33.023Z,12.97
2019-02-21T12:17:19.171Z,12.67
2019-02-21T12:20:06.852Z,11.51
2019-02-21T12:22:52.435Z,11.19
2019-02-21T12:25:58.726Z,11.25
2019-02-21T12:28:45.649Z,10.93
2019-02-21T12:31:33.575Z,11.20
2019-02-21T12:34:19.633Z,11.07
2019-02-21T12:37:05.118Z,11.96
2019-02-21T12:39:51.276Z,12.32
2019-02-21T12:42:37.010Z,12.27
2019-02-21T12:45:22.853Z,12.38
2019-02-21T12:48:08.667Z,12.67
2019-02-21T12:50:54.500Z,12.72
2019-02-21T12:53:40.397Z,12.75
2019-02-21T12:56:26.430Z,12.50
2019-02-21T12:59:11.869Z,12.42
2019-02-21T13:01:58.078Z,11.94
2019-02-21T13:04:44.549Z,12.36
2019-02-21T13:07:29.955Z,12.05
2019-02-21T13:10:19.151Z,12.18
2019-02-21T13:13:05.314Z,12.29
2019-02-21T13:15:51.036Z,12.59
2019-02-21T13:18:36.656Z,12.75
2019-02-21T13:21:23.043Z,12.65
2019-02-21T13:24:08.464Z,12.79
2019-02-21T13:26:56.240Z,12.76
2019-02-21T13:29:42.387Z,12.58
2019-02-21T13:32:27.930Z,12.16
2019-02-21T13:35:14.506Z,12.32
2019-02-21T13:38:00.824Z,12.20
2019-02-21T13:40:46.404Z,12.30
2019-02-21T13:43:31.748Z,12.34
2019-02-21T13:46:17.554Z,12.29
2019-02-21T13:49:02.926Z,12.47
2019-02-21T13:51:48.721Z,12.52
2019-02-21T13:54:34.588Z,12.53
2019-02-21T13:57:19.975Z,12.72
2019-02-21T14:00:08.225Z,12.56
2019-02-21T14:02:54.177Z,12.60
2019-02-21T14:05:39.567Z,12.77
2019-02-21T14:08:25.991Z,12.96
2019-02-21T14:11:11.403Z,12.63
2019-02-21T14:13:56.845Z,12.94
2019-02-21T14:16:46.738Z,13.01
2019-02-21T14:19:31.168Z,12.93
2019-02-21T14:22:16.949Z,12.58
2019-02-21T14:25:03.560Z,12.47
2019-02-21T14:27:49.902Z,12.67
2019-02-21T14:30:35.785Z,12.68
2019-02-21T14:33:21.638Z,12.87
2019-02-21T14:36:15.229Z,12.86
2019-02-21T14:38:54.973Z,12.61
2019-02-21T14:41:44.047Z,12.65
2019-02-21T14:44:31.301Z,12.70
2019-02-21T14:47:17.132Z,12.64
2019-02-21T14:50:05.997Z,12.51
2019-02-21T14:52:51.334Z,12.47
2019-02-21T14:55:36.741Z,12.72
2019-02-21T14:58:22.514Z,12.56
2019-02-21T15:01:08.119Z,12.52
2019-02-21T15:03:53.845Z,12.54
2019-02-21T15:06:39.634Z,12.62
2019-02-21T15:09:24.987Z,12.62
2019-02-21T15:12:11.882Z,12.64
2019-02-21T15:14:58.166Z,12.47
2019-02-21T15:17:43.693Z,12.48
2019-02-21T15:20:36.938Z,12.46
2019-02-21T15:23:16.486Z,12.42
2019-02-21T15:26:02.039Z,12.29
2019-02-21T15:28:47.549Z,12.29
2019-02-21T15:31:32.965Z,12.38
2019-02-21T15:34:20.976Z,12.26
2019-02-21T15:37:07.032Z,12.21
2019-02-21T15:39:52.570Z,12.23
2019-02-21T15:42:38.261Z,12.51
2019-02-21T15:45:24.399Z,12.34
2019-02-21T15:48:10.355Z,12.40
2019-02-21T15:50:56.457Z,12.38
2019-02-21T15:53:41.983Z,12.58
2019-02-21T15:56:27.507Z,12.49
2019-02-21T15:59:13.812Z,12.56
2019-02-21T16:01:59.358Z,12.54
2019-02-21T16:04:45.262Z,12.29
2019-02-21T16:07:31.341Z,12.29
2019-02-21T16:10:18.814Z,12.35
2019-02-21T16:13:19.418Z,12.27
2019-02-21T16:16:05.963Z,12.18
2019-02-21T16:18:51.865Z,12.34
2019-02-21T16:21:37.904Z,12.21
2019-02-21T16:24:23.564Z,12.19
2019-02-21T16:27:09.607Z,12.26
2019-02-21T16:29:55.876Z,12.19
2019-02-21T16:32:41.574Z,12.24
2019-02-21T16:35:27.569Z,12.23
2019-02-21T16:38:16.541Z,12.11
2019-02-21T16:41:02.296Z,11.95
2019-02-21T16:43:47.659Z,11.92
2019-02-21T16:46:43.439Z,11.84
2019-02-21T16:49:43.041Z,11.96
2019-02-21T16:52:29.205Z,11.87
2019-02-21T16:55:16.264Z,11.87
2019-02-21T16:58:01.927Z,11.93
2019-02-21T17:00:52.774Z,11.82
2019-02-21T17:03:35.272Z,11.78
2019-02-21T17:06:20.662Z,11.73
2019-02-21T17:09:07.838Z,11.58
2019-02-21T17:11:53.624Z,11.73
2019-02-21T17:14:41.388Z,11.57
2019-02-21T17:17:27.496Z,11.61
2019-02-21T17:20:14.881Z,11.46
2019-02-21T17:23:00.580Z,11.50
2019-02-21T17:25:53.691Z,11.45
2019-02-21T17:28:40.440Z,11.49
2019-02-21T17:31:26.341Z,11.43
2019-02-21T17:34:12.697Z,11.27
2019-02-21T17:37:00.734Z,11.44
2019-02-21T17:39:46.015Z,11.36
2019-02-21T17:42:31.451Z,11.58
2019-02-21T17:45:17.998Z,11.39
2019-02-21T17:48:03.840Z,11.21
2019-02-21T17:50:55.344Z,11.34
2019-02-21T17:53:41.277Z,11.33
2019-02-21T17:56:27.423Z,11.26
2019-02-21T17:59:13.677Z,11.19
2019-02-21T18:02:05.423Z,11.19
2019-02-21T18:04:51.949Z,11.25
2019-02-21T18:07:37.901Z,11.10
2019-02-21T18:10:33.953Z,11.26
2019-02-21T18:13:20.449Z,11.28
2019-02-21T18:16:07.145Z,11.31
2019-02-21T18:18:52.845Z,11.21
2019-02-21T18:21:39.936Z,11.19
2019-02-21T18:24:26.574Z,11.14
2019-02-21T18:27:13.820Z,11.12
2019-02-21T18:29:59.456Z,11.16
2019-02-21T18:32:47.031Z,11.20
2019-02-21T18:35:33.123Z,10.81
2019-02-21T18:38:19.006Z,10.67
2019-02-21T18:41:05.236Z,10.56
2019-02-21T18:43:51.089Z,10.53
2019-02-21T18:46:56.587Z,10.54
2019-02-21T18:49:43.037Z,10.60
2019-02-21T18:52:28.854Z,10.64
2019-02-21T18:55:18.051Z,10.67
2019-02-21T18:58:03.772Z,10.61
2019-02-21T19:00:49.917Z,10.74
2019-02-21T19:03:36.855Z,10.73
2019-02-21T19:06:22.966Z,10.78
2019-02-21T19:09:09.289Z,10.75
2019-02-21T19:11:55.013Z,10.96
2019-02-21T19:14:41.451Z,10.84
2019-02-21T19:17:27.617Z,10.75
2019-02-21T19:20:13.612Z,10.80
2019-02-21T19:22:59.572Z,10.93
2019-02-21T19:25:45.356Z,10.67
2019-02-21T19:28:33.585Z,10.41
2019-02-21T19:31:19.294Z,10.43
2019-02-21T19:40:50.921Z,10.24
2019-02-21T19:43:36.657Z,10.24
2019-02-21T19:46:22.677Z,10.14
2019-02-21T19:49:08.608Z,10.14
2019-02-21T19:51:55.329Z,10.09
2019-02-21T19:54:40.786Z,10.00
2019-02-21T19:57:26.961Z,10.12
2019-02-21T20:00:15.721Z,10.18
2019-02-21T20:03:02.315Z,10.25
2019-02-21T20:05:47.830Z,10.10
2019-02-21T20:08:33.861Z,10.18
2019-02-21T20:11:26.757Z,10.20
2019-02-21T20:14:22.141Z,10.13
2019-02-21T20:17:08.716Z,10.17
2019-02-21T20:19:54.722Z,10.16
2019-02-21T20:22:40.438Z,10.04
2019-02-21T20:25:25.869Z,10.06
2019-02-21T20:28:11.291Z,10.01
2019-02-21T20:30:59.664Z,9.85
2019-02-21T20:33:45.250Z,9.89
2019-02-21T20:36:31.335Z,9.78
2019-02-21T20:39:17.714Z,9.94
2019-02-21T20:42:06.213Z,9.87
2019-02-21T20:44:51.568Z,9.90
2019-02-21T20:47:40.539Z,9.91
2019-02-21T20:50:27.321Z,9.89
2019-02-21T20:53:13.056Z,9.73
2019-02-21T20:55:58.885Z,9.77
2019-02-21T20:58:44.381Z,9.73
2019-02-21T21:01:29.731Z,9.65
2019-02-21T21:04:16.306Z,9.76
2019-02-21T21:07:02.098Z,9.73
2019-02-21T21:09:47.564Z,9.72
2019-02-21T21:12:32.995Z,9.79
2019-02-21T21:15:18.554Z,9.80
2019-02-21T21:18:04.322Z,9.78
2019-02-21T21:20:50.045Z,10.02
2019-02-21T21:23:35.475Z,9.88
2019-02-21T21:26:23.027Z,9.76
2019-02-21T21:29:09.052Z,10.00
2019-02-21T21:31:54.614Z,9.90
2019-02-21T21:34:39.932Z,9.67
2019-02-21T21:37:25.800Z,9.74
2019-02-21T21:40:12.033Z,9.72
2019-02-21T21:42:57.512Z,9.63
2019-02-21T21:45:43.462Z,9.72
2019-02-21T21:48:29.410Z,9.80
2019-02-21T21:51:17.052Z,9.55
2019-02-21T21:54:03.105Z,9.51
2019-02-21T21:56:48.407Z,9.62
2019-02-21T21:59:33.846Z,9.77
2019-02-21T22:02:19.621Z,9.61
2019-02-21T22:05:06.979Z,9.52
2019-02-21T22:07:52.458Z,9.54
2019-02-21T22:10:39.061Z,9.50
2019-02-21T22:13:24.669Z,9.54
2019-02-21T22:16:10.754Z,9.49
2019-02-21T22:18:56.646Z,9.68
2019-02-21T22:21:42.064Z,9.68
2019-02-21T22:24:27.530Z,9.54
2019-02-21T22:27:13.430Z,9.57
2019-02-21T22:29:58.882Z,9.61
2019-02-21T22:32:44.587Z,9.66
2019-02-21T22:35:30.335Z,9.62
2019-02-21T22:38:16.410Z,9.77
2019-02-21T22:41:01.722Z,9.53
2019-02-21T22:43:47.695Z,9.57
2019-02-21T22:46:33.090Z,9.59
2019-02-21T22:49:18.507Z,9.63
2019-02-21T22:52:04.333Z,9.54
2019-02-21T22:54:49.828Z,9.54
2019-02-21T22:57:35.231Z,9.45
2019-02-21T23:01:01.381Z,9.52
2019-02-21T23:03:59.550Z,9.64
2019-02-21T23:07:06.401Z,9.63
2019-02-21T23:09:52.022Z,9.62
2019-02-21T23:12:37.495Z,9.62
2019-02-21T23:15:24.490Z,9.53
2019-02-21T23:18:12.170Z,9.47
2019-02-21T23:20:58.299Z,9.46
2019-02-21T23:23:44.163Z,9.52
2019-02-21T23:26:29.754Z,9.46
2019-02-21T23:29:16.145Z,9.38
2019-02-21T23:32:03.311Z,9.50
2019-02-21T23:34:50.139Z,9.45
2019-02-21T23:37:35.709Z,9.38
2019-02-21T23:40:21.867Z,9.40
2019-02-21T23:43:07.414Z,9.46
2019-02-21T23:45:52.795Z,9.41
2019-02-21T23:48:39.344Z,9.52
2019-02-21T23:51:25.005Z,9.46
2019-02-21T23:54:10.301Z,9.42
2019-02-21T23:56:56.154Z,9.36
2019-02-21T23:59:42.089Z,9.53
